sensor_id;sensor_type;location;lat;lon;timestamp;temperature;humidity
13970;DHT22;7057;49.984;8.404;2023-09-19T00:01:35;17.30;99.90
13970;DHT22;7057;49.984;8.404;2023-09-19T00:04:04;17.30;99.90
13970;DHT22;7057;49.984;8.404;2023-09-19T00:06:35;17.30;99.90
13970;DHT22;7057;49.984;8.404;2023-09-19T00:09:03;17.30;99.90
13970;DHT22;7057;49.984;8.404;2023-09-19T00:11:30;17.30;99.90
13970;DHT22;7057;49.984;8.404;2023-09-19T00:13:57;17.30;99.90
13970;DHT22;7057;49.984;8.404;2023-09-19T00:16:26;17.30;99.90
13970;DHT22;7057;49.984;8.404;2023-09-19T00:18:53;17.30;99.90
13970;DHT22;7057;49.984;8.404;2023-09-19T00:21:22;17.30;99.90
13970;DHT22;7057;49.984;8.404;2023-09-19T00:23:49;17.40;99.90
13970;DHT22;7057;49.984;8.404;2023-09-19T00:26:17;17.40;99.90
13970;DHT22;7057;49.984;8.404;2023-09-19T00:28:46;17.40;99.90
13970;DHT22;7057;49.984;8.404;2023-09-19T00:31:14;17.40;99.90
13970;DHT22;7057;49.984;8.404;2023-09-19T00:33:41;17.40;99.90
13970;DHT22;7057;49.984;8.404;2023-09-19T00:36:08;17.40;99.90
13970;DHT22;7057;49.984;8.404;2023-09-19T00:38:37;17.40;99.90
13970;DHT22;7057;49.984;8.404;2023-09-19T00:41:04;17.30;99.90
13970;DHT22;7057;49.984;8.404;2023-09-19T00:43:31;17.30;99.90
13970;DHT22;7057;49.984;8.404;2023-09-19T00:46:00;17.30;99.90
13970;DHT22;7057;49.984;8.404;2023-09-19T00:48:29;17.30;99.90
13970;DHT22;7057;49.984;8.404;2023-09-19T00:50:59;17.30;99.90
13970;DHT22;7057;49.984;8.404;2023-09-19T00:53:31;17.30;99.90
13970;DHT22;7057;49.984;8.404;2023-09-19T00:55:59;17.30;99.90
13970;DHT22;7057;49.984;8.404;2023-09-19T00:58:26;17.30;99.90
13970;DHT22;7057;49.984;8.404;2023-09-19T01:00:58;17.30;99.90
13970;DHT22;7057;49.984;8.404;2023-09-19T01:03:25;17.30;99.90
13970;DHT22;7057;49.984;8.404;2023-09-19T01:05:52;17.30;99.90
13970;DHT22;7057;49.984;8.404;2023-09-19T01:08:20;17.30;99.90
13970;DHT22;7057;49.984;8.404;2023-09-19T01:10:52;17.40;99.90
13970;DHT22;7057;49.984;8.404;2023-09-19T01:13:26;17.40;99.90
13970;DHT22;7057;49.984;8.404;2023-09-19T01:16:07;17.40;99.90
13970;DHT22;7057;49.984;8.404;2023-09-19T01:18:43;17.40;99.90
13970;DHT22;7057;49.984;8.404;2023-09-19T01:21:19;17.40;99.90
13970;DHT22;7057;49.984;8.404;2023-09-19T01:24:11;17.40;99.90
13970;DHT22;7057;49.984;8.404;2023-09-19T01:26:59;17.40;99.90
13970;DHT22;7057;49.984;8.404;2023-09-19T01:29:37;17.40;99.90
13970;DHT22;7057;49.984;8.404;2023-09-19T01:32:08;17.50;99.90
13970;DHT22;7057;49.984;8.404;2023-09-19T01:34:46;17.50;99.90
13970;DHT22;7057;49.984;8.404;2023-09-19T01:37:14;17.50;99.90
13970;DHT22;7057;49.984;8.404;2023-09-19T01:39:46;17.50;99.90
13970;DHT22;7057;49.984;8.404;2023-09-19T01:42:24;17.40;99.90
13970;DHT22;7057;49.984;8.404;2023-09-19T01:45:02;17.30;99.90
13970;DHT22;7057;49.984;8.404;2023-09-19T01:47:33;17.30;99.90
13970;DHT22;7057;49.984;8.404;2023-09-19T01:50:11;17.30;99.90
13970;DHT22;7057;49.984;8.404;2023-09-19T01:52:45;17.30;99.90
13970;DHT22;7057;49.984;8.404;2023-09-19T01:55:15;17.30;99.90
13970;DHT22;7057;49.984;8.404;2023-09-19T01:57:49;17.30;99.90
13970;DHT22;7057;49.984;8.404;2023-09-19T02:00:20;17.30;99.90
13970;DHT22;7057;49.984;8.404;2023-09-19T02:02:51;17.30;99.90
13970;DHT22;7057;49.984;8.404;2023-09-19T02:05:24;17.30;99.90
13970;DHT22;7057;49.984;8.404;2023-09-19T02:07:53;17.30;99.90
13970;DHT22;7057;49.984;8.404;2023-09-19T02:10:21;17.30;99.90
13970;DHT22;7057;49.984;8.404;2023-09-19T02:12:50;17.30;99.90
13970;DHT22;7057;49.984;8.404;2023-09-19T02:15:18;17.30;99.90
13970;DHT22;7057;49.984;8.404;2023-09-19T02:17:45;17.20;99.90
13970;DHT22;7057;49.984;8.404;2023-09-19T02:20:14;17.10;99.90
13970;DHT22;7057;49.984;8.404;2023-09-19T02:22:42;17.00;99.90
13970;DHT22;7057;49.984;8.404;2023-09-19T02:25:10;16.90;99.90
13970;DHT22;7057;49.984;8.404;2023-09-19T02:27:39;16.80;99.90
13970;DHT22;7057;49.984;8.404;2023-09-19T02:30:07;16.80;99.90
13970;DHT22;7057;49.984;8.404;2023-09-19T02:32:34;16.70;99.90
13970;DHT22;7057;49.984;8.404;2023-09-19T02:35:06;16.70;99.90
13970;DHT22;7057;49.984;8.404;2023-09-19T02:37:35;16.70;99.90
13970;DHT22;7057;49.984;8.404;2023-09-19T02:40:02;16.60;99.90
13970;DHT22;7057;49.984;8.404;2023-09-19T02:42:45;16.50;99.90
13970;DHT22;7057;49.984;8.404;2023-09-19T02:45:15;16.50;99.90
13970;DHT22;7057;49.984;8.404;2023-09-19T02:47:43;16.40;99.90
13970;DHT22;7057;49.984;8.404;2023-09-19T02:50:11;16.40;99.90
13970;DHT22;7057;49.984;8.404;2023-09-19T02:52:41;16.30;99.90
13970;DHT22;7057;49.984;8.404;2023-09-19T02:55:10;16.20;99.90
13970;DHT22;7057;49.984;8.404;2023-09-19T02:57:38;16.20;99.90
13970;DHT22;7057;49.984;8.404;2023-09-19T03:00:07;16.20;99.90
13970;DHT22;7057;49.984;8.404;2023-09-19T03:02:36;16.10;99.90
13970;DHT22;7057;49.984;8.404;2023-09-19T03:05:05;16.10;99.90
13970;DHT22;7057;49.984;8.404;2023-09-19T03:07:33;16.10;99.90
13970;DHT22;7057;49.984;8.404;2023-09-19T03:10:02;16.10;99.90
13970;DHT22;7057;49.984;8.404;2023-09-19T03:12:29;16.10;99.90
13970;DHT22;7057;49.984;8.404;2023-09-19T03:14:56;16.10;99.90
13970;DHT22;7057;49.984;8.404;2023-09-19T03:17:23;16.00;99.90
13970;DHT22;7057;49.984;8.404;2023-09-19T03:19:50;16.00;99.90
13970;DHT22;7057;49.984;8.404;2023-09-19T03:22:17;16.00;99.90
13970;DHT22;7057;49.984;8.404;2023-09-19T03:24:45;16.10;99.90
13970;DHT22;7057;49.984;8.404;2023-09-19T03:27:13;16.10;99.90
13970;DHT22;7057;49.984;8.404;2023-09-19T03:29:41;16.00;99.90
13970;DHT22;7057;49.984;8.404;2023-09-19T03:32:09;16.00;99.90
13970;DHT22;7057;49.984;8.404;2023-09-19T03:34:37;16.00;99.90
13970;DHT22;7057;49.984;8.404;2023-09-19T03:37:08;16.00;99.90
13970;DHT22;7057;49.984;8.404;2023-09-19T03:39:36;15.90;99.90
13970;DHT22;7057;49.984;8.404;2023-09-19T03:42:03;15.90;99.90
13970;DHT22;7057;49.984;8.404;2023-09-19T03:44:34;15.90;99.90
13970;DHT22;7057;49.984;8.404;2023-09-19T03:47:01;15.80;99.90
13970;DHT22;7057;49.984;8.404;2023-09-19T03:49:28;15.80;99.90
13970;DHT22;7057;49.984;8.404;2023-09-19T03:51:56;15.80;99.90
13970;DHT22;7057;49.984;8.404;2023-09-19T03:54:24;15.80;99.90
13970;DHT22;7057;49.984;8.404;2023-09-19T03:56:51;15.80;99.90
13970;DHT22;7057;49.984;8.404;2023-09-19T03:59:18;15.80;99.90
13970;DHT22;7057;49.984;8.404;2023-09-19T04:01:47;15.80;99.90
13970;DHT22;7057;49.984;8.404;2023-09-19T04:04:16;15.80;99.90
13970;DHT22;7057;49.984;8.404;2023-09-19T04:06:44;15.80;99.90
13970;DHT22;7057;49.984;8.404;2023-09-19T04:09:12;15.70;99.90
13970;DHT22;7057;49.984;8.404;2023-09-19T04:11:39;15.70;99.90
13970;DHT22;7057;49.984;8.404;2023-09-19T04:14:06;15.70;99.90
13970;DHT22;7057;49.984;8.404;2023-09-19T04:16:33;15.70;99.90
13970;DHT22;7057;49.984;8.404;2023-09-19T04:19:02;15.80;99.90
13970;DHT22;7057;49.984;8.404;2023-09-19T04:21:29;15.80;99.90
13970;DHT22;7057;49.984;8.404;2023-09-19T04:23:56;15.90;99.90
13970;DHT22;7057;49.984;8.404;2023-09-19T04:26:23;16.00;99.90
13970;DHT22;7057;49.984;8.404;2023-09-19T04:28:52;16.10;99.90
13970;DHT22;7057;49.984;8.404;2023-09-19T04:31:19;16.10;99.90
13970;DHT22;7057;49.984;8.404;2023-09-19T04:33:47;16.10;99.90
13970;DHT22;7057;49.984;8.404;2023-09-19T04:36:16;16.00;99.90
13970;DHT22;7057;49.984;8.404;2023-09-19T04:38:43;15.90;99.90
13970;DHT22;7057;49.984;8.404;2023-09-19T04:41:10;16.00;99.90
13970;DHT22;7057;49.984;8.404;2023-09-19T04:43:37;15.90;99.90
13970;DHT22;7057;49.984;8.404;2023-09-19T04:46:04;15.90;99.90
13970;DHT22;7057;49.984;8.404;2023-09-19T04:48:32;15.80;99.90
13970;DHT22;7057;49.984;8.404;2023-09-19T04:51:01;15.90;99.90
13970;DHT22;7057;49.984;8.404;2023-09-19T04:53:30;15.80;99.90
13970;DHT22;7057;49.984;8.404;2023-09-19T04:55:57;15.70;99.90
13970;DHT22;7057;49.984;8.404;2023-09-19T04:58:24;15.70;99.90
13970;DHT22;7057;49.984;8.404;2023-09-19T05:00:51;15.70;99.90
13970;DHT22;7057;49.984;8.404;2023-09-19T05:03:18;15.70;99.90
13970;DHT22;7057;49.984;8.404;2023-09-19T05:05:46;15.70;99.90
13970;DHT22;7057;49.984;8.404;2023-09-19T05:08:13;15.80;99.90
13970;DHT22;7057;49.984;8.404;2023-09-19T05:10:42;15.70;99.90
13970;DHT22;7057;49.984;8.404;2023-09-19T05:13:09;15.70;99.90
13970;DHT22;7057;49.984;8.404;2023-09-19T05:15:38;15.80;99.90
13970;DHT22;7057;49.984;8.404;2023-09-19T05:18:05;15.80;99.90
13970;DHT22;7057;49.984;8.404;2023-09-19T05:20:33;15.80;99.90
13970;DHT22;7057;49.984;8.404;2023-09-19T05:23:03;15.80;99.90
13970;DHT22;7057;49.984;8.404;2023-09-19T05:25:35;15.70;99.90
13970;DHT22;7057;49.984;8.404;2023-09-19T05:28:06;15.70;99.90
13970;DHT22;7057;49.984;8.404;2023-09-19T05:30:34;15.80;99.90
13970;DHT22;7057;49.984;8.404;2023-09-19T05:33:02;15.80;99.90
13970;DHT22;7057;49.984;8.404;2023-09-19T05:35:30;15.90;99.90
13970;DHT22;7057;49.984;8.404;2023-09-19T05:37:57;15.90;99.90
13970;DHT22;7057;49.984;8.404;2023-09-19T05:40:25;15.90;99.90
13970;DHT22;7057;49.984;8.404;2023-09-19T05:42:53;15.90;99.90
13970;DHT22;7057;49.984;8.404;2023-09-19T05:45:21;15.90;99.90
13970;DHT22;7057;49.984;8.404;2023-09-19T05:47:49;15.90;99.90
13970;DHT22;7057;49.984;8.404;2023-09-19T05:50:17;16.00;99.90
13970;DHT22;7057;49.984;8.404;2023-09-19T05:52:52;16.00;99.90
13970;DHT22;7057;49.984;8.404;2023-09-19T05:55:19;15.90;99.90
13970;DHT22;7057;49.984;8.404;2023-09-19T05:57:49;15.90;99.90
13970;DHT22;7057;49.984;8.404;2023-09-19T06:00:17;15.90;99.90
13970;DHT22;7057;49.984;8.404;2023-09-19T06:02:51;16.00;99.90
13970;DHT22;7057;49.984;8.404;2023-09-19T06:05:19;16.00;99.90
13970;DHT22;7057;49.984;8.404;2023-09-19T06:07:47;16.00;99.90
13970;DHT22;7057;49.984;8.404;2023-09-19T06:10:14;16.10;99.90
13970;DHT22;7057;49.984;8.404;2023-09-19T06:12:43;16.10;99.90
13970;DHT22;7057;49.984;8.404;2023-09-19T06:15:11;16.30;99.90
13970;DHT22;7057;49.984;8.404;2023-09-19T06:17:41;16.30;99.90
13970;DHT22;7057;49.984;8.404;2023-09-19T06:20:10;16.40;99.90
13970;DHT22;7057;49.984;8.404;2023-09-19T06:22:41;16.40;99.90
13970;DHT22;7057;49.984;8.404;2023-09-19T06:25:09;16.50;99.90
13970;DHT22;7057;49.984;8.404;2023-09-19T06:27:38;16.50;99.90
13970;DHT22;7057;49.984;8.404;2023-09-19T06:30:09;16.60;99.90
13970;DHT22;7057;49.984;8.404;2023-09-19T06:32:37;16.60;99.90
13970;DHT22;7057;49.984;8.404;2023-09-19T06:35:05;16.70;99.90
13970;DHT22;7057;49.984;8.404;2023-09-19T06:37:35;16.80;99.90
13970;DHT22;7057;49.984;8.404;2023-09-19T06:40:07;16.90;99.90
13970;DHT22;7057;49.984;8.404;2023-09-19T06:42:40;17.00;99.90
13970;DHT22;7057;49.984;8.404;2023-09-19T06:45:08;17.00;99.90
13970;DHT22;7057;49.984;8.404;2023-09-19T06:47:37;17.00;99.90
13970;DHT22;7057;49.984;8.404;2023-09-19T06:50:05;17.00;99.90
13970;DHT22;7057;49.984;8.404;2023-09-19T06:52:40;17.20;99.90
13970;DHT22;7057;49.984;8.404;2023-09-19T06:55:08;17.10;99.90
13970;DHT22;7057;49.984;8.404;2023-09-19T06:57:35;17.20;99.90
13970;DHT22;7057;49.984;8.404;2023-09-19T07:00:03;17.20;99.90
13970;DHT22;7057;49.984;8.404;2023-09-19T07:02:35;17.30;99.90
13970;DHT22;7057;49.984;8.404;2023-09-19T07:05:02;17.40;99.90
13970;DHT22;7057;49.984;8.404;2023-09-19T07:07:30;17.50;99.90
13970;DHT22;7057;49.984;8.404;2023-09-19T07:10:02;17.60;99.90
13970;DHT22;7057;49.984;8.404;2023-09-19T07:12:31;17.60;99.90
13970;DHT22;7057;49.984;8.404;2023-09-19T07:14:58;17.80;99.90
13970;DHT22;7057;49.984;8.404;2023-09-19T07:17:25;17.80;99.90
13970;DHT22;7057;49.984;8.404;2023-09-19T07:19:53;17.70;99.90
13970;DHT22;7057;49.984;8.404;2023-09-19T07:22:20;17.80;99.90
13970;DHT22;7057;49.984;8.404;2023-09-19T07:24:49;17.80;99.90
13970;DHT22;7057;49.984;8.404;2023-09-19T07:27:17;17.80;99.90
13970;DHT22;7057;49.984;8.404;2023-09-19T07:29:44;18.00;99.90
13970;DHT22;7057;49.984;8.404;2023-09-19T07:32:12;18.00;99.90
13970;DHT22;7057;49.984;8.404;2023-09-19T07:34:39;18.10;99.90
13970;DHT22;7057;49.984;8.404;2023-09-19T07:37:07;18.10;99.90
13970;DHT22;7057;49.984;8.404;2023-09-19T07:39:35;18.20;99.90
13970;DHT22;7057;49.984;8.404;2023-09-19T07:42:02;18.20;99.90
13970;DHT22;7057;49.984;8.404;2023-09-19T07:44:31;18.30;99.90
13970;DHT22;7057;49.984;8.404;2023-09-19T07:46:58;18.40;99.90
13970;DHT22;7057;49.984;8.404;2023-09-19T07:49:29;18.40;99.90
13970;DHT22;7057;49.984;8.404;2023-09-19T07:51:56;18.50;99.90
13970;DHT22;7057;49.984;8.404;2023-09-19T07:54:24;18.50;99.90
13970;DHT22;7057;49.984;8.404;2023-09-19T07:56:56;18.50;99.90
13970;DHT22;7057;49.984;8.404;2023-09-19T07:59:24;18.60;99.90
13970;DHT22;7057;49.984;8.404;2023-09-19T08:01:53;18.70;99.90
13970;DHT22;7057;49.984;8.404;2023-09-19T08:04:20;18.70;99.90
13970;DHT22;7057;49.984;8.404;2023-09-19T08:06:47;18.70;99.90
13970;DHT22;7057;49.984;8.404;2023-09-19T08:09:17;18.70;99.90
13970;DHT22;7057;49.984;8.404;2023-09-19T08:11:46;18.70;99.90
13970;DHT22;7057;49.984;8.404;2023-09-19T08:14:13;18.60;99.90
13970;DHT22;7057;49.984;8.404;2023-09-19T08:16:41;18.60;99.90
13970;DHT22;7057;49.984;8.404;2023-09-19T08:19:11;18.60;99.90
13970;DHT22;7057;49.984;8.404;2023-09-19T08:21:38;18.50;99.90
13970;DHT22;7057;49.984;8.404;2023-09-19T08:24:05;18.50;99.90
13970;DHT22;7057;49.984;8.404;2023-09-19T08:26:33;18.60;99.90
13970;DHT22;7057;49.984;8.404;2023-09-19T08:29:00;18.60;99.90
13970;DHT22;7057;49.984;8.404;2023-09-19T08:31:31;18.70;99.90
13970;DHT22;7057;49.984;8.404;2023-09-19T08:33:59;18.80;99.90
13970;DHT22;7057;49.984;8.404;2023-09-19T08:36:28;18.90;99.90
13970;DHT22;7057;49.984;8.404;2023-09-19T08:38:56;18.90;99.90
13970;DHT22;7057;49.984;8.404;2023-09-19T08:41:23;19.10;99.90
13970;DHT22;7057;49.984;8.404;2023-09-19T08:43:51;19.10;99.90
13970;DHT22;7057;49.984;8.404;2023-09-19T08:46:18;19.10;99.90
13970;DHT22;7057;49.984;8.404;2023-09-19T08:48:54;19.20;99.90
13970;DHT22;7057;49.984;8.404;2023-09-19T08:51:30;19.30;99.90
13970;DHT22;7057;49.984;8.404;2023-09-19T08:54:03;19.30;99.90
13970;DHT22;7057;49.984;8.404;2023-09-19T08:56:32;19.40;99.90
13970;DHT22;7057;49.984;8.404;2023-09-19T08:59:02;19.50;99.90
13970;DHT22;7057;49.984;8.404;2023-09-19T09:01:31;19.40;99.90
13970;DHT22;7057;49.984;8.404;2023-09-19T09:03:59;19.40;99.90
13970;DHT22;7057;49.984;8.404;2023-09-19T09:06:28;19.50;99.90
13970;DHT22;7057;49.984;8.404;2023-09-19T09:08:55;19.50;99.90
13970;DHT22;7057;49.984;8.404;2023-09-19T09:11:23;19.50;99.90
13970;DHT22;7057;49.984;8.404;2023-09-19T09:13:50;19.60;99.90
13970;DHT22;7057;49.984;8.404;2023-09-19T09:16:17;19.60;99.90
13970;DHT22;7057;49.984;8.404;2023-09-19T09:18:45;19.50;99.90
13970;DHT22;7057;49.984;8.404;2023-09-19T09:21:12;19.40;99.90
13970;DHT22;7057;49.984;8.404;2023-09-19T09:23:43;19.40;99.90
13970;DHT22;7057;49.984;8.404;2023-09-19T09:26:10;19.30;99.90
13970;DHT22;7057;49.984;8.404;2023-09-19T09:28:44;19.30;99.90
13970;DHT22;7057;49.984;8.404;2023-09-19T09:31:22;19.20;99.90
13970;DHT22;7057;49.984;8.404;2023-09-19T09:33:53;19.30;99.90
13970;DHT22;7057;49.984;8.404;2023-09-19T09:36:34;19.30;99.90
13970;DHT22;7057;49.984;8.404;2023-09-19T09:39:04;19.30;99.90
13970;DHT22;7057;49.984;8.404;2023-09-19T09:41:44;19.40;99.90
13970;DHT22;7057;49.984;8.404;2023-09-19T09:44:15;19.40;99.90
13970;DHT22;7057;49.984;8.404;2023-09-19T09:46:44;19.50;99.90
13970;DHT22;7057;49.984;8.404;2023-09-19T09:49:26;19.50;99.90
13970;DHT22;7057;49.984;8.404;2023-09-19T09:52:00;19.60;99.90
13970;DHT22;7057;49.984;8.404;2023-09-19T09:54:34;19.70;99.90
13970;DHT22;7057;49.984;8.404;2023-09-19T09:57:04;19.90;99.90
13970;DHT22;7057;49.984;8.404;2023-09-19T09:59:51;20.10;99.90
13970;DHT22;7057;49.984;8.404;2023-09-19T10:02:20;20.20;99.90
13970;DHT22;7057;49.984;8.404;2023-09-19T10:04:51;20.30;99.90
13970;DHT22;7057;49.984;8.404;2023-09-19T10:07:28;20.50;99.90
13970;DHT22;7057;49.984;8.404;2023-09-19T10:10:04;20.50;99.90
13970;DHT22;7057;49.984;8.404;2023-09-19T10:12:44;20.50;99.90
13970;DHT22;7057;49.984;8.404;2023-09-19T10:15:17;20.30;99.90
13970;DHT22;7057;49.984;8.404;2023-09-19T10:17:47;20.20;99.90
13970;DHT22;7057;49.984;8.404;2023-09-19T10:20:15;20.20;99.90
13970;DHT22;7057;49.984;8.404;2023-09-19T10:23:00;20.30;99.90
13970;DHT22;7057;49.984;8.404;2023-09-19T10:25:29;20.40;99.90
13970;DHT22;7057;49.984;8.404;2023-09-19T10:27:58;20.40;99.90
13970;DHT22;7057;49.984;8.404;2023-09-19T10:30:29;20.40;99.90
13970;DHT22;7057;49.984;8.404;2023-09-19T10:33:00;20.40;99.90
13970;DHT22;7057;49.984;8.404;2023-09-19T10:35:28;20.40;99.90
13970;DHT22;7057;49.984;8.404;2023-09-19T10:37:59;20.40;99.90
13970;DHT22;7057;49.984;8.404;2023-09-19T10:40:28;20.40;99.90
13970;DHT22;7057;49.984;8.404;2023-09-19T10:43:01;20.50;99.90
13970;DHT22;7057;49.984;8.404;2023-09-19T10:45:31;20.60;99.90
13970;DHT22;7057;49.984;8.404;2023-09-19T10:47:59;20.50;99.90
13970;DHT22;7057;49.984;8.404;2023-09-19T10:50:28;20.40;99.90
13970;DHT22;7057;49.984;8.404;2023-09-19T10:53:00;20.50;99.90
13970;DHT22;7057;49.984;8.404;2023-09-19T10:55:32;20.50;99.90
13970;DHT22;7057;49.984;8.404;2023-09-19T10:58:01;20.60;99.90
13970;DHT22;7057;49.984;8.404;2023-09-19T11:00:50;20.60;99.90
13970;DHT22;7057;49.984;8.404;2023-09-19T11:03:19;20.80;99.90
13970;DHT22;7057;49.984;8.404;2023-09-19T11:06:02;20.90;99.90
13970;DHT22;7057;49.984;8.404;2023-09-19T11:08:33;21.20;99.90
13970;DHT22;7057;49.984;8.404;2023-09-19T11:11:43;21.20;99.90
13970;DHT22;7057;49.984;8.404;2023-09-19T11:14:38;21.30;99.90
13970;DHT22;7057;49.984;8.404;2023-09-19T11:20:20;21.50;99.90
13970;DHT22;7057;49.984;8.404;2023-09-19T11:23:19;21.50;99.90
13970;DHT22;7057;49.984;8.404;2023-09-19T11:25:50;21.50;99.90
13970;DHT22;7057;49.984;8.404;2023-09-19T11:28:33;21.50;99.90
13970;DHT22;7057;49.984;8.404;2023-09-19T11:31:41;21.30;99.90
13970;DHT22;7057;49.984;8.404;2023-09-19T11:34:37;21.40;99.90
13970;DHT22;7057;49.984;8.404;2023-09-19T11:40:38;21.30;99.90
13970;DHT22;7057;49.984;8.404;2023-09-19T11:43:29;21.30;99.90
13970;DHT22;7057;49.984;8.404;2023-09-19T11:46:03;21.30;99.90
13970;DHT22;7057;49.984;8.404;2023-09-19T11:48:32;21.40;99.90
13970;DHT22;7057;49.984;8.404;2023-09-19T11:51:01;21.40;99.90
13970;DHT22;7057;49.984;8.404;2023-09-19T11:53:33;21.50;99.90
13970;DHT22;7057;49.984;8.404;2023-09-19T11:56:06;21.60;99.90
13970;DHT22;7057;49.984;8.404;2023-09-19T11:58:37;21.70;99.90
13970;DHT22;7057;49.984;8.404;2023-09-19T12:01:05;21.60;99.90
13970;DHT22;7057;49.984;8.404;2023-09-19T12:03:42;21.60;99.90
13970;DHT22;7057;49.984;8.404;2023-09-19T12:06:12;21.70;99.90
13970;DHT22;7057;49.984;8.404;2023-09-19T12:08:41;21.70;99.90
13970;DHT22;7057;49.984;8.404;2023-09-19T12:11:14;21.80;99.90
13970;DHT22;7057;49.984;8.404;2023-09-19T12:13:47;21.90;99.90
13970;DHT22;7057;49.984;8.404;2023-09-19T12:16:15;22.00;99.90
13970;DHT22;7057;49.984;8.404;2023-09-19T12:18:44;22.10;99.90
13970;DHT22;7057;49.984;8.404;2023-09-19T12:21:25;22.10;99.90
13970;DHT22;7057;49.984;8.404;2023-09-19T12:24:07;22.20;99.90
13970;DHT22;7057;49.984;8.404;2023-09-19T12:26:41;22.30;99.90
13970;DHT22;7057;49.984;8.404;2023-09-19T12:29:13;22.40;99.90
13970;DHT22;7057;49.984;8.404;2023-09-19T12:31:50;22.40;99.90
13970;DHT22;7057;49.984;8.404;2023-09-19T12:34:22;22.40;99.90
13970;DHT22;7057;49.984;8.404;2023-09-19T12:37:09;22.30;99.90
13970;DHT22;7057;49.984;8.404;2023-09-19T12:39:43;22.40;99.90
13970;DHT22;7057;49.984;8.404;2023-09-19T12:42:16;22.50;99.90
13970;DHT22;7057;49.984;8.404;2023-09-19T12:44:46;22.40;99.90
13970;DHT22;7057;49.984;8.404;2023-09-19T12:47:14;22.40;99.90
13970;DHT22;7057;49.984;8.404;2023-09-19T12:50:08;22.50;99.90
13970;DHT22;7057;49.984;8.404;2023-09-19T12:52:41;22.50;99.90
13970;DHT22;7057;49.984;8.404;2023-09-19T12:55:20;22.50;99.90
13970;DHT22;7057;49.984;8.404;2023-09-19T12:58:02;22.60;99.90
13970;DHT22;7057;49.984;8.404;2023-09-19T13:00:33;22.70;99.90
13970;DHT22;7057;49.984;8.404;2023-09-19T13:03:15;22.70;99.90
13970;DHT22;7057;49.984;8.404;2023-09-19T13:05:53;22.60;99.90
13970;DHT22;7057;49.984;8.404;2023-09-19T13:08:25;22.50;99.90
13970;DHT22;7057;49.984;8.404;2023-09-19T13:11:07;22.40;99.90
13970;DHT22;7057;49.984;8.404;2023-09-19T13:13:39;22.50;99.90
13970;DHT22;7057;49.984;8.404;2023-09-19T13:16:07;22.70;99.90
13970;DHT22;7057;49.984;8.404;2023-09-19T13:18:45;22.70;99.90
13970;DHT22;7057;49.984;8.404;2023-09-19T13:21:13;22.70;99.90
13970;DHT22;7057;49.984;8.404;2023-09-19T13:23:50;22.80;99.90
13970;DHT22;7057;49.984;8.404;2023-09-19T13:26:18;22.80;99.90
13970;DHT22;7057;49.984;8.404;2023-09-19T13:28:47;22.80;99.90
13970;DHT22;7057;49.984;8.404;2023-09-19T13:31:15;22.90;99.90
13970;DHT22;7057;49.984;8.404;2023-09-19T13:33:43;23.00;99.90
13970;DHT22;7057;49.984;8.404;2023-09-19T13:36:11;23.10;99.90
13970;DHT22;7057;49.984;8.404;2023-09-19T13:38:39;23.20;99.90
13970;DHT22;7057;49.984;8.404;2023-09-19T13:41:08;23.20;99.90
13970;DHT22;7057;49.984;8.404;2023-09-19T13:43:35;23.30;99.90
13970;DHT22;7057;49.984;8.404;2023-09-19T13:46:04;23.30;99.90
13970;DHT22;7057;49.984;8.404;2023-09-19T13:48:33;23.10;99.90
13970;DHT22;7057;49.984;8.404;2023-09-19T13:51:02;22.90;99.90
13970;DHT22;7057;49.984;8.404;2023-09-19T13:53:30;22.70;99.90
13970;DHT22;7057;49.984;8.404;2023-09-19T13:55:57;22.60;99.90
13970;DHT22;7057;49.984;8.404;2023-09-19T13:58:24;22.40;99.90
13970;DHT22;7057;49.984;8.404;2023-09-19T14:00:53;22.20;99.90
13970;DHT22;7057;49.984;8.404;2023-09-19T14:03:25;22.20;99.90
13970;DHT22;7057;49.984;8.404;2023-09-19T14:05:54;22.20;99.90
13970;DHT22;7057;49.984;8.404;2023-09-19T14:08:21;22.20;99.90
13970;DHT22;7057;49.984;8.404;2023-09-19T14:10:49;22.30;99.90
13970;DHT22;7057;49.984;8.404;2023-09-19T14:13:16;22.30;99.90
13970;DHT22;7057;49.984;8.404;2023-09-19T14:15:43;22.20;99.90
13970;DHT22;7057;49.984;8.404;2023-09-19T14:18:10;22.30;99.90
13970;DHT22;7057;49.984;8.404;2023-09-19T14:20:39;22.20;99.90
13970;DHT22;7057;49.984;8.404;2023-09-19T14:23:07;22.20;99.90
13970;DHT22;7057;49.984;8.404;2023-09-19T14:25:35;22.20;99.90
13970;DHT22;7057;49.984;8.404;2023-09-19T14:28:02;22.30;99.90
13970;DHT22;7057;49.984;8.404;2023-09-19T14:30:29;22.50;99.90
13970;DHT22;7057;49.984;8.404;2023-09-19T14:32:57;22.70;99.90
13970;DHT22;7057;49.984;8.404;2023-09-19T14:35:24;22.60;99.90
13970;DHT22;7057;49.984;8.404;2023-09-19T14:37:53;22.70;99.90
13970;DHT22;7057;49.984;8.404;2023-09-19T14:40:21;22.60;99.90
13970;DHT22;7057;49.984;8.404;2023-09-19T14:42:48;22.60;99.90
13970;DHT22;7057;49.984;8.404;2023-09-19T14:45:15;22.70;99.90
13970;DHT22;7057;49.984;8.404;2023-09-19T14:47:45;22.80;99.90
13970;DHT22;7057;49.984;8.404;2023-09-19T14:50:13;22.90;99.90
13970;DHT22;7057;49.984;8.404;2023-09-19T14:52:41;22.90;99.90
13970;DHT22;7057;49.984;8.404;2023-09-19T14:55:10;22.80;99.90
13970;DHT22;7057;49.984;8.404;2023-09-19T14:57:40;22.90;99.90
13970;DHT22;7057;49.984;8.404;2023-09-19T15:00:11;23.00;99.90
13970;DHT22;7057;49.984;8.404;2023-09-19T15:02:38;23.10;99.90
13970;DHT22;7057;49.984;8.404;2023-09-19T15:05:06;23.30;99.90
13970;DHT22;7057;49.984;8.404;2023-09-19T15:07:35;23.30;99.90
13970;DHT22;7057;49.984;8.404;2023-09-19T15:10:04;23.40;99.90
13970;DHT22;7057;49.984;8.404;2023-09-19T15:12:34;23.50;99.90
13970;DHT22;7057;49.984;8.404;2023-09-19T15:15:01;23.50;99.90
13970;DHT22;7057;49.984;8.404;2023-09-19T15:17:30;23.40;99.90
13970;DHT22;7057;49.984;8.404;2023-09-19T15:19:58;23.20;99.90
13970;DHT22;7057;49.984;8.404;2023-09-19T15:22:25;23.10;99.90
13970;DHT22;7057;49.984;8.404;2023-09-19T15:24:52;22.90;99.90
13970;DHT22;7057;49.984;8.404;2023-09-19T15:27:19;22.80;99.90
13970;DHT22;7057;49.984;8.404;2023-09-19T15:29:48;22.70;99.90
13970;DHT22;7057;49.984;8.404;2023-09-19T15:32:15;22.80;99.90
13970;DHT22;7057;49.984;8.404;2023-09-19T15:34:42;22.70;99.90
13970;DHT22;7057;49.984;8.404;2023-09-19T15:37:09;22.90;99.90
13970;DHT22;7057;49.984;8.404;2023-09-19T15:39:37;22.90;99.90
13970;DHT22;7057;49.984;8.404;2023-09-19T15:42:04;23.00;99.90
13970;DHT22;7057;49.984;8.404;2023-09-19T15:44:32;23.00;99.90
13970;DHT22;7057;49.984;8.404;2023-09-19T15:47:01;23.00;99.90
13970;DHT22;7057;49.984;8.404;2023-09-19T15:49:28;23.00;99.90
13970;DHT22;7057;49.984;8.404;2023-09-19T15:51:55;23.00;99.90
13970;DHT22;7057;49.984;8.404;2023-09-19T15:54:23;22.90;99.90
13970;DHT22;7057;49.984;8.404;2023-09-19T15:56:52;22.80;99.90
13970;DHT22;7057;49.984;8.404;2023-09-19T15:59:19;22.90;99.90
13970;DHT22;7057;49.984;8.404;2023-09-19T16:01:46;23.00;99.90
13970;DHT22;7057;49.984;8.404;2023-09-19T16:04:15;23.10;99.90
13970;DHT22;7057;49.984;8.404;2023-09-19T16:06:43;23.10;99.90
13970;DHT22;7057;49.984;8.404;2023-09-19T16:09:10;23.10;99.90
13970;DHT22;7057;49.984;8.404;2023-09-19T16:11:37;23.00;99.90